Flight Track Log - Related Links

Times and Time Zones

All times are in EST time to prevent confusion due to time zone crossing. See the UCA3597 flight status page for this flight to view local times or setup timezone preferences in your user account.

Time Position Orientation Groundspeed Altitude Reporting Facility
EST Latitude Longitude Course Direction KTS MPH feet Rate Location/Type
Thu 07:15:39 PM 42.1922 -76.0244 211° Southwest 255 293 4,700  Level New York Center
Thu 07:16:39 PM 42.1575 -76.0553 213° Southwest 128 147 6,600 1,950 Climbing New York Center
Thu 07:17:39 PM 42.1269 -76.0919 222° Southwest 140 161 8,600 2,050 Climbing New York Center
Thu 07:18:39 PM 42.0942 -76.1256 217° Southwest 145 167 10,700 2,000 Climbing New York Center
Thu 07:19:39 PM 42.0514 -76.1500 203° Southwest 157 181 12,600 1,850 Climbing New York Center
Thu 07:20:39 PM 42.0086 -76.1744 203° Southwest 178 205 14,400 1,700 Climbing New York Center
Thu 07:21:00 PM 41.8147 -76.1667 211° Southwest  Level Estimated
Thu 07:21:39 PM 41.9594 -76.2039 204° Southwest 178 205 16,000  Level New York Center
Thu 07:22:39 PM 41.8994 -76.2408 205° Southwest 214 246 16,000  Level New York Center
Thu 07:23:39 PM 41.8372 -76.2775 204° Southwest 256 295 16,000 -50 Level New York Center
Thu 07:24:39 PM 41.7711 -76.3164 204° Southwest 266 306 15,900  Descending New York Center
Thu 07:25:39 PM 41.6961 -76.3603 204° Southwest 266 306 16,000 50 Climbing New York Center
Thu 07:26:39 PM 41.6297 -76.3992 204° Southwest 261 300 16,000  Level New York Center
Thu 07:27:39 PM 41.5611 -76.4378 203° Southwest 261 300 16,000  Level New York Center
Thu 07:28:39 PM 41.5011 -76.4714 203° Southwest 261 300 16,000  Level New York Center
Thu 07:29:39 PM 41.4325 -76.5128 204° Southwest 261 300 16,000  Level New York Center
Thu 07:30:39 PM 41.3619 -76.5536 203° Southwest 261 300 16,000  Level New York Center
Thu 07:31:39 PM 41.2911 -76.5944 203° Southwest 261 300 16,000  Level New York Center
Thu 07:32:39 PM 41.2331 -76.6281 204° Southwest 261 300 16,000  Level New York Center
Thu 07:33:39 PM 41.1644 -76.6692 204° Southwest 261 300 16,000  Level New York Center
Thu 07:34:39 PM 41.0978 -76.7100 205° Southwest 261 300 16,000  Level New York Center
Thu 07:35:39 PM 41.0314 -76.7483 204° Southwest 261 300 16,000  Level New York Center
Thu 07:36:39 PM 40.9647 -76.7864 203° Southwest 261 300 16,000 -50 Level New York Center
Thu 07:37:39 PM 40.8961 -76.8244 203° Southwest 261 300 15,900 -50 Descending New York Center
Thu 07:38:39 PM 40.8231 -76.8672 204° Southwest 261 300 15,900  Level New York Center
Thu 07:39:39 PM 40.7572 -76.8942 197° South 266 306 15,900 50 Level New York Center
Thu 07:40:39 PM 40.6744 -76.9197 193° South 277 319 16,000 50 Climbing New York Center
Thu 07:41:39 PM 40.6086 -76.9439 196° South 277 319 16,000  Level New York Center
Thu 07:42:39 PM 40.5242 -76.9664 191° South 282 325 16,000  Level New York Center
Thu 07:43:39 PM 40.4564 -76.9875 193° South 282 325 16,000 -150 Level New York Center
Thu 07:44:39 PM 40.3758 -77.0131 194° South 282 325 15,700 -650 Descending New York Center
Thu 07:45:39 PM 40.3056 -77.0367 194° South 288 331 14,700 -1,100 Descending New York Center
Thu 07:46:39 PM 40.2167 -77.0639 193° South 294 338 13,500 -1,161 Descending New York Center
Thu 07:48:14 PM 40.1000 -77.1000 193° South 290 334 11,700 -1,200 Descending Potomac TRACON
Thu 07:49:14 PM 40.0333 -77.1167 191° South 287 330 10,400 -1,368 Descending Potomac TRACON
Thu 07:50:08 PM 39.9500 -77.1500 197° South 282 325 9,100 -700 Descending Potomac TRACON
Thu 07:51:14 PM 39.8667 -77.1667 189° South 268 308 9,000 -149 Descending Potomac TRACON
Thu 07:52:09 PM 39.8167 -77.2000 207° Southwest 264 304 8,800 -470 Descending Potomac TRACON
Thu 07:53:09 PM 39.7833 -77.2667 237° Southwest 229 264 8,100 -397 Descending Potomac TRACON
Thu 07:54:10 PM 39.7500 -77.3333 237° Southwest 228 262 8,000 -99 Descending Potomac TRACON
Thu 07:55:10 PM 39.7000 -77.3667 207° Southwest 236 272 7,900 -48 Descending Potomac TRACON
Thu 07:56:16 PM 39.6000 -77.3667 180° South 267 307 7,900 -333 Level Potomac TRACON
Thu 07:57:16 PM 39.5333 -77.3667 180° South 267 307 7,200 -700 Descending Potomac TRACON
Thu 07:58:16 PM 39.4500 -77.3667 180° South 262 302 6,500 -600 Descending Potomac TRACON
Thu 07:59:16 PM 39.3833 -77.3667 180° South 259 298 6,000 -550 Descending Potomac TRACON
Thu 08:00:16 PM 39.3167 -77.3667 180° South 259 298 5,400 -500 Descending Potomac TRACON
Thu 08:01:16 PM 39.2500 -77.3667 180° South 257 296 5,000 -450 Descending Potomac TRACON
Thu 08:02:16 PM 39.1833 -77.3667 180° South 256 295 4,500 -500 Descending Potomac TRACON
Thu 08:03:16 PM 39.1000 -77.3500 171° South 248 285 4,000 -300 Descending Potomac TRACON
Thu 08:04:16 PM 39.0333 -77.3500 180° South 236 272 3,900 -350 Descending Potomac TRACON
Thu 08:05:16 PM 38.9667 -77.3500 180° South 239 275 3,300 -450 Descending Potomac TRACON
Thu 08:06:16 PM 38.9000 -77.3500 180° South 227 261 3,000 -150 Descending Potomac TRACON
Thu 08:07:16 PM 38.8500 -77.3667 195° South 223 257 3,000 -500 Level Potomac TRACON
Thu 08:08:16 PM 38.8167 -77.3833 201° Southwest 171 197 2,000 -526 Descending Potomac TRACON
Thu 08:09:10 PM 38.8333 -77.4167 303° West 142 163 2,000 -350 Level Potomac TRACON
Thu 08:10:16 PM 38.8833 -77.4333 345° North 124 143 1,300 -645 Descending Potomac TRACON
Thu 08:11:11 PM 38.9000 -77.4333 360° North 115 132 700 -655 Descending Potomac TRACON
Thu 08:13:00 PM 38.9333 -77.4500 349° North  Level FlightAware Approximate
Thu 08:20:00 PM 38.9474 -77.4599 349° North  Level Estimated

Login

Don't have an account? Register now (free) for customized features, flight alerts, and more!